createdAt,value
2019-03-15T09:17:05.468Z,2.20
2019-03-15T09:19:33.450Z,1.57
2019-03-15T09:22:00.789Z,1.10
2019-03-15T09:24:27.887Z,0.60
2019-03-15T09:26:54.658Z,0.60
2019-03-15T09:29:21.538Z,2.33
2019-03-15T09:31:48.613Z,1.07
2019-03-15T09:34:15.560Z,0.90
2019-03-15T09:36:49.966Z,1.17
2019-03-15T09:39:10.905Z,0.80
2019-03-15T09:41:39.975Z,0.90
2019-03-15T09:44:06.289Z,0.60
2019-03-15T09:46:33.059Z,0.60
2019-03-15T09:49:00.027Z,1.00
2019-03-15T09:51:26.794Z,1.10
2019-03-15T09:53:53.568Z,1.27
2019-03-15T09:56:20.628Z,1.30
2019-03-15T09:58:47.389Z,0.60
2019-03-15T10:01:14.258Z,1.87
2019-03-15T10:03:40.972Z,1.47
2019-03-15T10:06:14.842Z,0.62
2019-03-15T10:08:36.172Z,1.77
2019-03-15T10:11:03.132Z,2.45
2019-03-15T10:13:29.817Z,0.40
2019-03-15T10:15:56.593Z,0.40
2019-03-15T10:18:23.309Z,0.42
2019-03-15T10:20:50.051Z,0.40
2019-03-15T10:23:16.756Z,0.60
2019-03-15T10:25:48.432Z,0.50
2019-03-15T10:28:11.996Z,0.50
2019-03-15T10:30:39.180Z,0.40
2019-03-15T10:33:05.937Z,0.40
2019-03-15T10:35:32.714Z,0.50
2019-03-15T10:37:59.522Z,1.67
2019-03-15T10:40:26.355Z,0.40
2019-03-15T10:42:55.450Z,1.37
2019-03-15T10:45:21.598Z,0.62
2019-03-15T10:47:48.351Z,0.93
2019-03-15T10:50:15.321Z,0.70
2019-03-15T10:52:42.074Z,0.50
2019-03-15T10:55:09.062Z,1.75
2019-03-15T10:57:36.116Z,0.72
2019-03-15T11:00:02.989Z,0.50
2019-03-15T11:02:34.553Z,0.50
2019-03-15T11:05:01.321Z,0.90
2019-03-15T11:07:28.259Z,0.62
2019-03-15T11:09:54.974Z,0.55
2019-03-15T11:12:21.919Z,0.50
2019-03-15T11:14:48.990Z,0.42
2019-03-15T11:17:15.752Z,0.40
2019-03-15T11:19:42.515Z,0.88
2019-03-15T11:22:09.357Z,0.60
2019-03-15T11:24:39.316Z,0.88
2019-03-15T11:27:06.042Z,0.50
2019-03-15T11:29:32.620Z,1.57
2019-03-15T11:31:59.300Z,0.40
2019-03-15T11:34:26.057Z,0.40
2019-03-15T11:36:58.284Z,0.95
2019-03-15T11:39:21.213Z,0.60
2019-03-15T11:41:48.040Z,1.10
2019-03-15T11:44:14.734Z,3.85
2019-03-15T11:46:41.506Z,0.62
2019-03-15T11:49:08.255Z,0.60
2019-03-15T11:51:34.942Z,0.60
2019-03-15T11:54:01.742Z,0.40
2019-03-15T11:56:28.542Z,2.85
2019-03-15T11:58:55.422Z,0.50
2019-03-15T12:01:22.182Z,0.40
2019-03-15T12:03:53.351Z,0.50
2019-03-15T12:06:17.549Z,0.50
2019-03-15T12:08:44.209Z,1.82
2019-03-15T12:11:10.963Z,0.90
2019-03-15T12:13:37.528Z,0.60
2019-03-15T12:16:04.399Z,0.50
2019-03-15T12:18:31.320Z,0.40
2019-03-15T12:20:57.969Z,0.40
2019-03-15T12:23:24.676Z,0.40
2019-03-15T12:25:51.436Z,0.40
2019-03-15T12:28:18.513Z,1.72
2019-03-15T12:30:45.277Z,3.70
2019-03-15T12:33:12.144Z,0.40
2019-03-15T12:35:38.887Z,0.50
2019-03-15T12:38:05.667Z,0.40
2019-03-15T12:40:32.325Z,0.95
2019-03-15T12:42:59.290Z,0.68
2019-03-15T12:45:25.942Z,0.60
2019-03-15T12:47:52.717Z,0.80
2019-03-15T12:50:19.378Z,0.55
2019-03-15T12:52:48.264Z,0.75
2019-03-15T12:55:14.736Z,0.50
2019-03-15T12:57:41.496Z,2.37
2019-03-15T13:00:08.167Z,0.85
2019-03-15T13:02:34.917Z,0.70
2019-03-15T13:05:01.696Z,2.08
2019-03-15T13:07:28.554Z,0.40
2019-03-15T13:09:55.408Z,1.98
2019-03-15T13:12:22.067Z,0.50
2019-03-15T13:14:48.767Z,0.93
2019-03-15T13:17:15.607Z,1.45
2019-03-15T13:19:54.580Z,0.62
2019-03-15T13:22:10.868Z,0.98
2019-03-15T13:24:37.737Z,2.27
2019-03-15T13:27:07.813Z,1.45
2019-03-15T13:29:45.232Z,1.42
2019-03-15T13:32:12.120Z,1.30
2019-03-15T13:34:38.992Z,1.45
2019-03-15T13:37:05.767Z,1.60
2019-03-15T13:39:32.726Z,1.20
2019-03-15T13:41:59.586Z,2.42
2019-03-15T13:44:26.414Z,1.32
2019-03-15T13:46:53.426Z,3.65
2019-03-15T13:49:23.029Z,1.90
2019-03-15T13:51:49.774Z,1.35
2019-03-15T13:54:16.670Z,1.30
2019-03-15T13:56:43.810Z,3.87
2019-03-15T13:59:10.708Z,3.17
2019-03-15T14:01:37.615Z,4.70
2019-03-15T14:04:04.311Z,7.53
2019-03-15T14:06:31.158Z,2.75
2019-03-15T14:08:57.949Z,3.87
2019-03-15T14:11:24.587Z,3.08
2019-03-15T14:13:51.539Z,3.85
2019-03-15T14:16:18.248Z,3.08
2019-03-15T14:18:45.129Z,2.47
2019-03-15T14:21:11.775Z,2.47
2019-03-15T14:23:38.547Z,3.47
2019-03-15T14:26:05.981Z,4.03
2019-03-15T14:28:32.858Z,4.15
2019-03-15T14:30:59.754Z,4.47
2019-03-15T14:33:28.390Z,2.80
2019-03-15T14:35:54.992Z,4.65
2019-03-15T14:38:21.748Z,2.25
2019-03-15T14:40:48.620Z,5.50
2019-03-15T14:43:15.621Z,4.10
2019-03-15T14:45:42.629Z,5.72
2019-03-15T14:48:09.553Z,2.33
2019-03-15T14:50:36.415Z,7.10
2019-03-15T14:53:03.004Z,8.08
2019-03-15T14:55:30.195Z,2.80
2019-03-15T14:58:00.023Z,7.70
2019-03-15T15:00:25.455Z,0.90
2019-03-15T15:02:52.055Z,1.70
2019-03-15T15:05:18.775Z,2.45
2019-03-15T15:07:45.375Z,1.05
2019-03-15T15:10:12.150Z,0.75
2019-03-15T15:12:38.955Z,2.80
2019-03-15T15:15:05.795Z,1.40
2019-03-15T15:17:32.596Z,1.22
2019-03-15T15:19:59.398Z,1.20
2019-03-15T15:22:26.236Z,0.88
2019-03-15T15:24:53.035Z,1.77
2019-03-15T15:27:19.982Z,0.70
2019-03-15T15:29:46.676Z,1.05
2019-03-15T15:32:13.513Z,1.87
2019-03-15T15:34:40.146Z,3.90
2019-03-15T15:37:07.152Z,1.30
2019-03-15T15:39:34.028Z,1.87
2019-03-15T15:42:01.095Z,2.10
2019-03-15T15:44:27.751Z,1.30
2019-03-15T15:46:54.467Z,1.40
2019-03-15T15:49:21.376Z,2.55
2019-03-15T15:51:48.058Z,4.72
2019-03-15T15:54:14.780Z,1.20
2019-03-15T15:56:41.660Z,2.17
2019-03-15T15:59:08.320Z,2.47
2019-03-15T16:01:34.980Z,1.85
2019-03-15T16:04:01.646Z,6.12
2019-03-15T16:06:28.514Z,3.37
2019-03-15T16:08:55.254Z,1.87
2019-03-15T16:11:22.024Z,2.15
2019-03-15T16:13:48.785Z,2.27
2019-03-15T16:16:15.465Z,1.65
2019-03-15T16:18:42.172Z,2.92
2019-03-15T16:21:08.972Z,2.40
2019-03-15T16:23:35.635Z,2.05
2019-03-15T16:26:02.304Z,2.65
2019-03-15T16:28:31.851Z,2.55
2019-03-15T16:30:57.474Z,3.95
2019-03-15T16:33:24.195Z,4.72
2019-03-15T16:35:50.978Z,2.35
2019-03-15T16:38:18.063Z,2.02
2019-03-15T16:40:44.748Z,4.95
2019-03-15T16:43:11.363Z,1.92
2019-03-15T16:45:38.135Z,2.42
2019-03-15T16:48:05.002Z,4.22
2019-03-15T16:50:31.671Z,4.70
2019-03-15T16:52:58.333Z,2.52
2019-03-15T16:55:24.985Z,3.55
2019-03-15T16:57:51.718Z,3.75
2019-03-15T17:00:18.435Z,5.67
2019-03-15T17:02:45.061Z,3.75
2019-03-15T17:05:11.930Z,5.83
2019-03-15T17:07:38.585Z,3.17
2019-03-15T17:10:05.387Z,5.05
2019-03-15T17:12:32.105Z,3.37
2019-03-15T17:14:58.902Z,4.15
2019-03-15T17:17:25.697Z,8.25
2019-03-15T17:19:54.180Z,4.00
2019-03-15T17:22:20.696Z,3.30
2019-03-15T17:24:47.259Z,4.85
2019-03-15T17:27:13.796Z,5.20
2019-03-15T17:29:40.453Z,8.15
2019-03-15T17:32:07.119Z,5.45
2019-03-15T17:34:33.685Z,5.50
2019-03-15T17:37:06.645Z,11.10
2019-03-15T17:39:28.913Z,9.28
2019-03-15T17:41:55.504Z,8.88
2019-03-15T17:44:22.043Z,9.13
2019-03-15T17:46:48.798Z,8.53
2019-03-15T17:49:15.504Z,9.83
2019-03-15T17:51:42.266Z,6.60
2019-03-15T17:54:08.843Z,11.70
2019-03-15T17:56:35.524Z,10.20
2019-03-15T17:59:11.847Z,13.60
2019-03-15T18:01:30.531Z,16.90
2019-03-15T18:03:57.614Z,17.00
2019-03-15T18:06:24.356Z,12.50
2019-03-15T18:08:51.213Z,19.27
2019-03-15T18:11:18.192Z,16.80
2019-03-15T18:13:44.840Z,8.78
2019-03-15T18:16:11.510Z,16.35
2019-03-15T18:18:38.271Z,7.20
2019-03-15T18:21:04.994Z,6.97
2019-03-15T18:23:31.644Z,18.15
2019-03-15T18:25:58.456Z,16.60
2019-03-15T18:28:24.990Z,11.08
2019-03-15T18:30:51.708Z,9.05
2019-03-15T18:33:18.254Z,7.80
2019-03-15T18:35:45.173Z,7.75
2019-03-15T18:38:11.687Z,12.20
2019-03-15T18:40:38.369Z,10.32
2019-03-15T18:43:05.025Z,5.20
2019-03-15T18:45:31.615Z,4.83
2019-03-15T18:47:58.400Z,16.60
2019-03-15T18:50:25.183Z,6.40
2019-03-15T18:52:51.915Z,5.65
2019-03-15T18:55:18.616Z,4.92
2019-03-15T18:57:45.260Z,7.55
2019-03-15T19:00:11.920Z,7.55
2019-03-15T19:02:38.600Z,11.55
2019-03-15T19:05:05.194Z,9.80
2019-03-15T19:07:32.002Z,11.40
2019-03-15T19:09:58.854Z,13.55
2019-03-15T19:12:25.671Z,13.78
2019-03-15T19:14:52.492Z,11.53
2019-03-15T19:17:19.161Z,13.60
2019-03-15T19:19:45.799Z,14.18
2019-03-15T19:22:12.488Z,9.03
2019-03-15T19:24:39.289Z,13.75
2019-03-15T19:27:05.994Z,14.55
2019-03-15T19:29:32.752Z,18.80
2019-03-15T19:31:59.530Z,14.23
2019-03-15T19:34:26.301Z,8.40
2019-03-15T19:36:52.953Z,8.50
2019-03-15T19:39:19.577Z,6.72
2019-03-15T19:41:46.300Z,5.75
2019-03-15T19:44:13.032Z,8.20
2019-03-15T19:46:39.687Z,8.28
2019-03-15T19:49:06.372Z,6.25
2019-03-15T19:51:33.207Z,10.58
2019-03-15T19:53:59.716Z,9.53
2019-03-15T19:56:26.527Z,11.75
2019-03-15T19:58:53.399Z,9.30
2019-03-15T20:01:20.081Z,13.85
2019-03-15T20:03:46.679Z,12.73
2019-03-15T20:06:13.382Z,18.70
2019-03-15T20:08:39.952Z,17.87
2019-03-15T20:11:06.775Z,20.75
2019-03-15T20:13:33.559Z,19.17
2019-03-15T20:16:00.194Z,17.77
2019-03-15T20:18:26.795Z,16.05
2019-03-15T20:20:53.257Z,13.55
2019-03-15T20:23:19.811Z,21.30
2019-03-15T20:25:46.558Z,18.62
2019-03-15T20:28:13.075Z,16.93
2019-03-15T20:30:51.355Z,20.35
2019-03-15T20:33:08.161Z,12.50
2019-03-15T20:35:34.925Z,12.40
2019-03-15T20:38:01.661Z,15.70
2019-03-15T20:40:28.216Z,11.28
2019-03-15T20:42:54.936Z,8.43
2019-03-15T20:45:21.687Z,6.75
2019-03-15T20:47:48.433Z,8.68
2019-03-15T20:50:15.108Z,6.80
2019-03-15T20:52:41.686Z,8.05
2019-03-15T20:55:08.435Z,11.18
2019-03-15T20:57:35.214Z,7.75
2019-03-15T21:00:01.941Z,11.53
2019-03-15T21:02:28.614Z,10.82
2019-03-15T21:04:55.267Z,10.63
2019-03-15T21:07:21.937Z,7.60
2019-03-15T21:09:48.579Z,7.28
2019-03-15T21:12:15.098Z,9.38
2019-03-15T21:14:41.639Z,4.58
2019-03-15T21:17:08.164Z,4.78
2019-03-15T21:19:34.939Z,3.75
2019-03-15T21:22:01.700Z,4.00
2019-03-15T21:24:28.224Z,2.90
2019-03-15T21:26:55.142Z,3.25
2019-03-15T21:29:21.662Z,2.98
2019-03-15T21:31:48.325Z,3.08
2019-03-15T21:34:14.823Z,2.20
2019-03-15T21:36:41.462Z,3.27
2019-03-15T21:39:08.037Z,2.35
2019-03-15T21:41:34.677Z,4.53
2019-03-15T21:44:01.395Z,3.50
2019-03-15T21:46:27.905Z,4.10
2019-03-15T21:48:57.747Z,2.12
2019-03-15T21:51:24.366Z,1.77
2019-03-15T21:53:50.968Z,1.55
2019-03-15T21:56:17.562Z,2.60
2019-03-15T21:58:44.055Z,2.52
2019-03-15T22:01:10.680Z,2.77
2019-03-15T22:03:37.217Z,2.72
2019-03-15T22:06:03.935Z,2.77
2019-03-15T22:08:30.663Z,0.95
2019-03-15T22:10:57.365Z,1.45
2019-03-15T22:13:23.894Z,0.90
2019-03-15T22:15:50.497Z,1.70
2019-03-15T22:18:17.023Z,4.08
2019-03-15T22:20:43.659Z,2.58
